Time;durP1;ratioP1;P1;durP2;ratioP2;P2;SDS_P1;SDS_P2;PMS_P1;PMS_P2;Temp;Humidity;BMP_temperature;BMP_pressure;BME280_temperature;BME280_humidity;BME280_pressure;Samples;Min_cycle;Max_cycle;Signal;HPM_P1;HPM_P2
2022/06/08 00:00:25;;;;;;;1636.95;674.88;;;13.40;99.90;;;;;;5092678;28;20047;-81
2022/06/08 00:03:16;;;;;;;1999.90;999.90;;;14.00;99.90;;;;;;5091921;28;20089;-82
2022/06/08 00:05:41;;;;;;;1726.80;809.38;;;13.70;99.90;;;;;;5092042;28;20482;-82
2022/06/08 00:08:07;;;;;;;1777.88;703.22;;;13.40;99.90;;;;;;5075343;28;20043;-81
2022/06/08 00:10:33;;;;;;;1017.45;333.40;;;13.40;99.90;;;;;;5092247;28;20116;-82
2022/06/08 00:12:59;;;;;;;1460.25;490.60;;;13.40;99.90;;;;;;5091938;28;20079;-81
2022/06/08 00:15:26;;;;;;;1032.22;283.38;;;13.40;99.90;;;;;;5092456;28;20399;-81
2022/06/08 00:17:52;;;;;;;1655.00;614.37;;;13.40;99.90;;;;;;5095718;28;20106;-82
2022/06/08 00:20:18;;;;;;;1678.10;803.97;;;13.30;99.90;;;;;;5078009;28;20062;-81
2022/06/08 00:22:44;;;;;;;1999.90;999.90;;;13.40;99.90;;;;;;5093855;28;20567;-81
2022/06/08 00:25:10;;;;;;;1893.00;867.08;;;13.30;99.90;;;;;;5094869;28;20138;-84
2022/06/08 00:27:36;;;;;;;1999.90;999.90;;;13.20;99.90;;;;;;5095013;28;20040;-82
2022/06/08 00:30:04;;;;;;;968.50;309.02;;;13.20;99.90;;;;;;5112702;28;20058;-82
2022/06/08 00:32:29;;;;;;;1999.90;999.90;;;13.20;99.90;;;;;;5095073;28;20055;-82
2022/06/08 00:34:55;;;;;;;1590.75;769.00;;;13.40;99.90;;;;;;5107653;28;20452;-83
2022/06/08 00:37:23;;;;;;;945.08;251.00;;;13.20;99.90;;;;;;5076033;28;20079;-82
2022/06/08 00:39:49;;;;;;;1582.95;666.85;;;13.50;99.90;;;;;;5077553;28;20055;-82
2022/06/08 00:42:15;;;;;;;1547.10;587.17;;;13.30;99.90;;;;;;5112898;28;20049;-82
2022/06/08 00:44:51;;;;;;;1999.90;999.90;;;13.40;99.90;;;;;;5112647;28;20476;-82
2022/06/08 00:47:23;;;;;;;1999.90;999.90;;;13.50;99.90;;;;;;5113055;28;20506;-82
2022/06/08 00:49:57;;;;;;;1999.90;999.90;;;13.60;99.90;;;;;;5112812;28;20136;-82
2022/06/08 00:52:24;;;;;;;1999.90;999.90;;;13.60;99.90;;;;;;5093871;28;20127;-82
2022/06/08 00:54:57;;;;;;;1743.18;657.25;;;13.60;99.90;;;;;;5112268;28;20052;-82
2022/06/08 00:57:33;;;;;;;1069.97;332.40;;;13.60;99.90;;;;;;5093925;28;20051;-81
2022/06/08 01:00:31;;;;;;;1850.07;576.65;;;13.50;99.90;;;;;;5112373;28;20480;-82
2022/06/08 01:02:58;;;;;;;1381.82;453.50;;;13.40;99.90;;;;;;5110663;28;20047;-82
2022/06/08 01:05:24;;;;;;;1999.90;999.90;;;14.50;99.90;;;;;;5113299;28;20052;-81
2022/06/08 01:07:52;;;;;;;1748.25;830.30;;;13.30;99.90;;;;;;5093209;28;20051;-83
2022/06/08 01:10:21;;;;;;;1764.80;553.10;;;13.30;99.90;;;;;;5112150;28;20051;-81
2022/06/08 01:12:49;;;;;;;1611.10;422.73;;;13.30;99.90;;;;;;5111500;28;20040;-83
2022/06/08 01:15:20;;;;;;;1510.97;526.13;;;13.40;99.90;;;;;;5094907;28;20047;-84
2022/06/08 01:17:46;;;;;;;1691.88;512.35;;;13.30;99.90;;;;;;5111563;28;20265;-81
2022/06/08 01:20:12;;;;;;;1832.38;839.22;;;13.30;99.90;;;;;;5093373;28;20381;-82
2022/06/08 01:22:39;;;;;;;1226.10;376.50;;;14.30;99.90;;;;;;5093283;28;20039;-82
2022/06/08 01:25:06;;;;;;;1096.28;410.00;;;13.20;99.90;;;;;;5112363;28;20048;-82
2022/06/08 01:27:58;;;;;;;1375.10;505.70;;;13.30;99.90;;;;;;5094786;28;20093;-83
2022/06/08 01:30:25;;;;;;;1209.15;427.25;;;13.30;99.90;;;;;;5106659;28;20108;-82
2022/06/08 01:33:03;;;;;;;1999.90;999.90;;;13.20;99.90;;;;;;5111272;28;20063;-82
2022/06/08 01:35:35;;;;;;;1999.90;999.90;;;13.30;99.90;;;;;;5093758;28;20083;-83
2022/06/08 01:38:09;;;;;;;661.83;201.57;;;13.10;99.90;;;;;;5093095;28;20039;-82
2022/06/08 01:40:51;;;;;;;1999.90;999.90;;;13.10;99.90;;;;;;5093362;28;20461;-82
2022/06/08 01:43:19;;;;;;;1999.90;999.90;;;13.20;99.90;;;;;;5112151;28;20472;-81
2022/06/08 01:46:17;;;;;;;1304.45;503.48;;;13.30;99.90;;;;;;5111840;28;20127;-82
2022/06/08 01:49:09;;;;;;;1999.90;999.90;;;13.20;99.90;;;;;;5086229;28;20098;-85
2022/06/08 01:51:57;;;;;;;1999.90;999.90;;;13.30;99.90;;;;;;5093105;28;20051;-82
2022/06/08 01:54:47;;;;;;;1999.90;999.90;;;13.30;99.90;;;;;;5092992;28;20108;-82
2022/06/08 01:57:43;;;;;;;1745.38;817.53;;;13.20;99.90;;;;;;5111655;28;20503;-82
2022/06/08 02:00:39;;;;;;;1314.00;481.25;;;13.20;99.90;;;;;;5110941;28;20503;-82
2022/06/08 02:03:41;;;;;;;1999.90;999.90;;;13.40;99.90;;;;;;5109487;28;20548;-82
2022/06/08 02:06:11;;;;;;;1999.90;999.90;;;13.50;99.90;;;;;;5026407;28;20059;-81
2022/06/08 02:08:46;;;;;;;1999.90;999.90;;;13.50;99.90;;;;;;5093722;28;20082;-81
2022/06/08 02:11:24;;;;;;;1999.90;999.90;;;13.70;99.90;;;;;;5110827;28;20115;-81
2022/06/08 02:14:05;;;;;;;1999.90;999.90;;;13.70;99.90;;;;;;5076344;28;20100;-82
2022/06/08 02:16:37;;;;;;;1999.90;999.90;;;13.70;99.90;;;;;;5111857;28;20404;-81
2022/06/08 02:19:13;;;;;;;1999.90;999.90;;;13.70;99.90;;;;;;5093850;28;20462;-82
2022/06/08 02:21:42;;;;;;;1999.90;999.90;;;13.70;99.90;;;;;;5110536;28;20086;-83
2022/06/08 02:24:43;;;;;;;1999.90;999.90;;;13.60;99.90;;;;;;5093839;28;20138;-83
2022/06/08 02:27:30;;;;;;;1999.90;999.90;;;13.70;99.90;;;;;;5039494;28;20146;-82
2022/06/08 02:30:07;;;;;;;1999.90;999.90;;;13.80;99.90;;;;;;5111808;28;20048;-83
2022/06/08 02:35:44;;;;;;;1999.90;999.90;;;13.70;99.90;;;;;;5092679;28;20066;-82
2022/06/08 02:38:13;;;;;;;1999.90;999.90;;;13.80;99.90;;;;;;5110183;28;20457;-82
2022/06/08 02:40:48;;;;;;;1999.90;999.90;;;13.70;99.90;;;;;;5111126;28;20040;-83
2022/06/08 02:43:33;;;;;;;1999.90;999.90;;;13.60;99.90;;;;;;5092372;28;20047;-82
2022/06/08 02:46:13;;;;;;;1999.90;999.90;;;13.60;99.90;;;;;;5092716;28;20084;-82
2022/06/08 02:48:38;;;;;;;1999.90;999.90;;;13.70;99.90;;;;;;5092314;28;20183;-82
2022/06/08 02:51:04;;;;;;;1999.90;999.90;;;14.30;99.90;;;;;;5110517;28;20088;-83
2022/06/08 02:53:30;;;;;;;1999.90;999.90;;;13.90;99.90;;;;;;5091959;28;20070;-82
2022/06/08 02:56:08;;;;;;;1999.90;999.90;;;13.80;99.90;;;;;;5111305;28;20345;-82
2022/06/08 02:58:48;;;;;;;1999.90;999.90;;;13.80;99.90;;;;;;5091359;28;20438;-82
2022/06/08 03:01:21;;;;;;;1999.90;999.90;;;14.10;99.90;;;;;;5110200;28;20087;-82
2022/06/08 03:04:01;;;;;;;1999.90;999.90;;;13.80;99.90;;;;;;5092984;28;20112;-81
2022/06/08 03:06:37;;;;;;;1999.90;999.90;;;13.70;99.90;;;;;;5110563;28;20054;-81
2022/06/08 03:09:06;;;;;;;1999.90;999.90;;;13.60;99.90;;;;;;5109945;28;20050;-81
2022/06/08 03:11:41;;;;;;;1999.90;999.90;;;13.60;99.90;;;;;;5109902;28;20576;-81
2022/06/08 03:14:10;;;;;;;1999.90;999.90;;;13.60;99.90;;;;;;5110542;28;20048;-82
2022/06/08 03:17:04;;;;;;;1999.90;999.90;;;13.60;99.90;;;;;;5092945;28;20452;-81
2022/06/08 03:19:32;;;;;;;1999.90;999.90;;;13.70;99.90;;;;;;5106086;28;20457;-81
2022/06/08 03:21:58;;;;;;;1999.90;999.90;;;13.60;99.90;;;;;;5110339;28;20122;-81
2022/06/08 03:24:25;;;;;;;1999.90;999.90;;;13.50;99.90;;;;;;5110399;28;20447;-81
2022/06/08 03:26:55;;;;;;;1999.90;999.90;;;13.50;99.90;;;;;;5092828;28;20420;-81
2022/06/08 03:29:21;;;;;;;1490.68;656.90;;;13.40;99.90;;;;;;5110451;28;20213;-82
2022/06/08 03:31:47;;;;;;;884.95;254.38;;;13.40;99.90;;;;;;5091747;28;20056;-81
2022/06/08 03:34:12;;;;;;;1451.75;636.38;;;13.30;99.90;;;;;;5109582;28;20047;-83
2022/06/08 03:36:38;;;;;;;1999.90;999.90;;;13.30;99.90;;;;;;5092924;28;20051;-81
2022/06/08 03:39:05;;;;;;;1999.90;999.90;;;13.30;99.90;;;;;;5110251;28;20131;-85
2022/06/08 03:41:31;;;;;;;1999.90;999.90;;;13.30;99.90;;;;;;5075406;28;20468;-81
2022/06/08 03:43:58;;;;;;;1999.90;999.90;;;13.40;99.90;;;;;;5110290;28;20039;-82
2022/06/08 03:46:23;;;;;;;1999.90;999.90;;;13.40;99.90;;;;;;5109479;28;20054;-81
2022/06/08 03:48:51;;;;;;;1999.90;999.90;;;13.50;99.90;;;;;;5092811;28;20047;-81
2022/06/08 03:51:18;;;;;;;1999.90;999.90;;;13.50;99.90;;;;;;5109131;28;20043;-81
2022/06/08 03:53:49;;;;;;;1999.90;999.90;;;13.80;99.90;;;;;;5091663;28;20093;-83
2022/06/08 03:56:17;;;;;;;1999.90;999.90;;;13.60;99.90;;;;;;5093587;28;20449;-81
2022/06/08 03:58:43;;;;;;;;;;;13.90;99.90;;;;;;5114762;28;20043;-82
2022/06/08 04:01:11;;;;;;;1999.90;999.90;;;13.70;99.90;;;;;;5113717;28;19926;-82
2022/06/08 04:03:37;;;;;;;1999.90;999.90;;;14.50;99.90;;;;;;5077667;28;20105;-82
2022/06/08 04:06:03;;;;;;;1999.90;999.90;;;14.00;99.90;;;;;;5113361;28;20075;-81
2022/06/08 04:08:29;;;;;;;1999.90;999.90;;;14.00;99.90;;;;;;5095120;28;20051;-82
2022/06/08 04:10:55;;;;;;;1999.90;999.90;;;15.50;99.90;;;;;;5095354;28;20373;-82
2022/06/08 04:13:21;;;;;;;1594.47;763.45;;;14.30;99.90;;;;;;5113720;28;20046;-81
2022/06/08 04:15:46;;;;;;;1999.90;999.90;;;14.40;99.90;;;;;;5095888;28;20052;-81
2022/06/08 04:18:18;;;;;;;1999.90;999.90;;;14.80;99.90;;;;;;5113129;28;20092;-83
2022/06/08 04:20:48;;;;;;;958.03;151.90;;;14.70;99.90;;;;;;5114001;28;20047;-81
2022/06/08 04:23:16;;;;;;;779.33;125.95;;;14.80;99.90;;;;;;5114181;28;20089;-81
2022/06/08 04:25:42;;;;;;;1868.53;825.05;;;15.00;99.90;;;;;;5093984;28;20396;-81
2022/06/08 04:28:09;;;;;;;1437.15;257.23;;;15.10;99.90;;;;;;5094858;28;20536;-81
2022/06/08 04:30:35;;;;;;;987.20;182.13;;;15.20;99.90;;;;;;5094825;28;20127;-81
2022/06/08 04:33:01;;;;;;;611.53;81.43;;;15.30;99.90;;;;;;5114018;28;20040;-82
2022/06/08 04:35:27;;;;;;;1778.90;797.28;;;15.30;99.90;;;;;;5113541;28;20047;-81
2022/06/08 04:37:53;;;;;;;1709.18;777.63;;;15.40;99.90;;;;;;5095080;28;20048;-81
2022/06/08 04:40:21;;;;;;;1741.07;784.20;;;15.40;99.90;;;;;;5112744;28;20067;-81
2022/06/08 04:42:47;;;;;;;1999.90;999.90;;;15.40;99.90;;;;;;5113528;28;20078;-81
2022/06/08 04:45:13;;;;;;;1754.20;794.53;;;15.50;99.90;;;;;;5112847;28;20079;-81
2022/06/08 04:47:39;;;;;;;1999.90;999.90;;;15.50;99.90;;;;;;5113748;28;20051;-81
2022/06/08 04:50:07;;;;;;;1999.90;999.90;;;15.60;99.90;;;;;;5094992;28;20126;-81
2022/06/08 04:52:33;;;;;;;;;;;15.60;99.90;;;;;;5113679;28;20044;-81
2022/06/08 04:54:58;;;;;;;1999.90;999.90;;;15.70;99.90;;;;;;5094691;28;19931;-81
2022/06/08 04:57:24;;;;;;;1643.45;768.25;;;15.70;99.90;;;;;;5094290;28;20043;-81
2022/06/08 04:59:50;;;;;;;1379.57;245.63;;;15.80;99.90;;;;;;5094193;28;20357;-82
2022/06/08 05:02:42;;;;;;;1609.07;301.55;;;15.90;99.90;;;;;;5094907;28;20066;-82
2022/06/08 05:05:04;;;;;;;1863.68;800.85;;;15.90;99.90;;;;;;5113304;28;20047;-81
2022/06/08 05:07:29;;;;;;;1234.18;355.25;;;15.90;99.90;;;;;;5111454;28;20046;-81
2022/06/08 05:09:55;;;;;;;1999.90;999.90;;;16.00;99.90;;;;;;5111894;28;20047;-81
2022/06/08 05:12:21;;;;;;;1516.53;572.35;;;16.10;99.90;;;;;;5094374;28;20046;-81
2022/06/08 05:14:46;;;;;;;1016.58;134.65;;;16.20;99.90;;;;;;5094290;28;20444;-81
2022/06/08 05:17:12;;;;;;;1750.53;789.42;;;16.20;99.90;;;;;;5076217;28;20074;-80
2022/06/08 05:19:38;;;;;;;1731.35;784.65;;;16.20;99.90;;;;;;5094298;28;20058;-80
2022/06/08 05:22:04;;;;;;;1999.90;999.90;;;16.40;99.90;;;;;;5112916;28;20047;-81
2022/06/08 05:24:29;;;;;;;1717.43;786.17;;;16.30;99.90;;;;;;5112530;28;20131;-80
2022/06/08 05:26:55;;;;;;;1854.78;797.63;;;16.40;99.90;;;;;;5077742;28;20088;-81
2022/06/08 05:29:21;;;;;;;1999.90;999.90;;;16.50;99.90;;;;;;5094800;28;20047;-81
2022/06/08 05:31:46;;;;;;;1202.68;523.47;;;16.60;99.90;;;;;;5095561;28;20395;-81
2022/06/08 05:34:12;;;;;;;1746.80;786.72;;;16.60;99.90;;;;;;5094865;28;20044;-81
2022/06/08 05:36:38;;;;;;;1325.50;546.08;;;16.70;99.90;;;;;;5113380;28;20127;-81
2022/06/08 05:39:03;;;;;;;1999.90;999.90;;;16.80;99.90;;;;;;5112845;28;20127;-81
2022/06/08 05:41:29;;;;;;;1157.32;167.43;;;16.90;99.90;;;;;;5094186;28;20048;-81
2022/06/08 05:43:55;;;;;;;1514.22;283.77;;;17.00;99.90;;;;;;5094281;28;20047;-81
2022/06/08 05:46:21;;;;;;;1782.50;780.00;;;17.10;99.90;;;;;;5112520;28;20050;-81
2022/06/08 05:48:47;;;;;;;1843.70;810.58;;;17.30;99.90;;;;;;5113496;28;20115;-81
2022/06/08 05:51:13;;;;;;;688.83;78.38;;;17.30;99.90;;;;;;5113871;28;20074;-81
2022/06/08 05:53:38;;;;;;;1261.85;534.50;;;17.40;99.90;;;;;;5112677;28;20476;-81
2022/06/08 05:56:04;;;;;;;1555.90;574.10;;;17.60;99.90;;;;;;5113369;28;20082;-83
2022/06/08 05:58:33;;;;;;;1316.15;237.50;;;17.70;99.90;;;;;;5113264;28;20051;-81
2022/06/08 06:00:59;;;;;;;1999.90;999.90;;;17.70;99.90;;;;;;5113243;28;20138;-81
2022/06/08 06:03:24;;;;;;;1635.63;763.28;;;17.70;99.90;;;;;;5112759;28;20066;-82
2022/06/08 06:05:50;;;;;;;1999.90;999.90;;;17.80;99.90;;;;;;5112003;28;20093;-82
2022/06/08 06:08:17;;;;;;;1999.90;999.90;;;17.90;99.90;;;;;;5094392;28;20048;-82
2022/06/08 06:10:45;;;;;;;1999.90;999.90;;;18.10;99.90;;;;;;5111758;28;20476;-81
2022/06/08 06:13:10;;;;;;;1999.90;999.90;;;18.20;99.90;;;;;;5093605;28;20067;-83
2022/06/08 06:15:37;;;;;;;1999.90;999.90;;;18.30;99.90;;;;;;5111599;28;20138;-82
2022/06/08 06:18:06;;;;;;;1999.90;999.90;;;18.30;99.90;;;;;;5111500;28;20104;-81
2022/06/08 06:20:32;;;;;;;1999.90;999.90;;;18.60;99.90;;;;;;5093845;28;20372;-81
2022/06/08 06:22:58;;;;;;;1999.90;999.90;;;18.70;99.90;;;;;;5112224;28;20044;-82
2022/06/08 06:25:24;;;;;;;1802.00;813.40;;;18.80;99.90;;;;;;5111354;28;20048;-81
2022/06/08 06:27:50;;;;;;;1855.10;721.28;;;18.80;99.90;;;;;;5111943;28;20227;-81
2022/06/08 06:30:17;;;;;;;1999.90;999.90;;;19.00;99.90;;;;;;5093918;28;20046;-81
2022/06/08 06:32:44;;;;;;;1999.90;999.90;;;19.00;99.90;;;;;;5111296;28;20250;-82
2022/06/08 06:35:17;;;;;;;1808.10;828.65;;;19.10;99.90;;;;;;5110943;28;20564;-80
2022/06/08 06:37:43;;;;;;;1999.90;999.90;;;19.10;99.90;;;;;;5111810;28;20724;-81
2022/06/08 06:40:09;;;;;;;1835.57;381.88;;;19.20;99.90;;;;;;5093428;28;20184;-80
2022/06/08 06:42:35;;;;;;;1868.60;812.10;;;19.50;99.90;;;;;;5111726;28;20046;-81
2022/06/08 06:45:01;;;;;;;1841.10;788.15;;;19.60;99.90;;;;;;5093523;28;20040;-79
2022/06/08 06:47:26;;;;;;;1452.20;398.35;;;19.30;99.90;;;;;;5111214;28;20051;-81
2022/06/08 06:49:52;;;;;;;1313.82;540.22;;;19.60;99.90;;;;;;5111554;28;20159;-81
2022/06/08 06:52:18;;;;;;;1658.35;773.65;;;19.60;99.90;;;;;;5111521;28;20058;-81
2022/06/08 06:54:44;;;;;;;1999.90;999.90;;;19.80;99.90;;;;;;5111141;28;20369;-80
2022/06/08 06:57:10;;;;;;;1612.40;765.45;;;19.90;99.90;;;;;;5112072;28;20139;-80
2022/06/08 06:59:36;;;;;;;1673.20;782.88;;;19.90;99.90;;;;;;5111767;28;20116;-81
2022/06/08 07:02:02;;;;;;;1999.90;999.90;;;19.80;99.90;;;;;;5093568;28;20047;-80
2022/06/08 07:04:28;;;;;;;1999.90;999.90;;;19.80;99.90;;;;;;5093566;28;20174;-79
2022/06/08 07:06:54;;;;;;;1999.90;999.90;;;20.10;99.90;;;;;;5076910;28;20054;-79
2022/06/08 07:09:20;;;;;;;1999.90;999.90;;;20.40;99.90;;;;;;5111804;28;20043;-80
2022/06/08 07:11:46;;;;;;;1776.43;852.95;;;21.20;99.90;;;;;;5110944;28;20506;-80
2022/06/08 07:14:17;;;;;;;1281.95;622.10;;;21.70;99.90;;;;;;5111563;28;20051;-81
2022/06/08 07:16:45;;;;;;;1671.60;886.03;;;21.90;99.90;;;;;;5093237;28;20055;-79
2022/06/08 07:19:11;;;;;;;1862.45;951.72;;;22.00;99.90;;;;;;5111380;28;20055;-80
2022/06/08 07:21:38;;;;;;;1898.95;999.90;;;22.40;99.90;;;;;;5111279;28;20044;-79
2022/06/08 07:24:04;;;;;;;1999.90;999.90;;;22.20;99.90;;;;;;5111125;28;20039;-80
2022/06/08 07:26:30;;;;;;;1999.90;999.90;;;22.40;99.90;;;;;;5110643;28;20507;-83
2022/06/08 07:28:56;;;;;;;1999.90;999.90;;;22.90;99.90;;;;;;5110903;28;20044;-80
2022/06/08 07:31:23;;;;;;;1999.90;999.90;;;22.80;99.90;;;;;;5113954;28;20364;-79
2022/06/08 07:33:49;;;;;;;1999.90;999.90;;;22.50;99.90;;;;;;5096833;28;20051;-79
2022/06/08 07:36:16;;;;;;;1999.90;985.10;;;21.70;99.90;;;;;;5115288;28;20405;-79
2022/06/08 07:38:42;;;;;;;1999.90;999.90;;;21.60;99.90;;;;;;5115069;28;20063;-79
2022/06/08 07:41:08;;;;;;;1999.90;999.90;;;21.70;99.90;;;;;;5114683;28;20374;-79
2022/06/08 07:43:34;;;;;;;1999.90;999.90;;;21.30;99.90;;;;;;5096822;28;20047;-80
2022/06/08 07:46:00;;;;;;;1999.90;999.90;;;21.50;99.90;;;;;;5114987;28;20499;-80
2022/06/08 07:51:10;;;;;;;1999.90;999.90;;;21.70;99.90;;;;;;5115343;28;20070;-81
2022/06/08 07:53:36;;;;;;;1999.90;999.90;;;21.80;99.90;;;;;;5114986;28;20040;-80
2022/06/08 07:56:03;;;;;;;1999.90;903.22;;;22.10;99.90;;;;;;5114900;28;20395;-78
2022/06/08 07:58:30;;;;;;;1999.90;947.92;;;21.60;99.90;;;;;;5096889;28;20134;-80
2022/06/08 08:00:57;;;;;;;1999.90;999.90;;;21.90;99.90;;;;;;5114208;28;20500;-80
2022/06/08 08:03:23;;;;;;;1999.90;887.92;;;22.10;99.90;;;;;;5115054;28;20048;-80
2022/06/08 08:05:49;;;;;;;1999.90;999.90;;;22.00;99.90;;;;;;5096404;28;20354;-80
2022/06/08 08:08:17;;;;;;;1999.90;999.90;;;21.90;99.90;;;;;;5097151;28;20054;-80
2022/06/08 08:10:43;;;;;;;;;;;22.40;99.90;;;;;;5114591;28;20056;-79
2022/06/08 08:13:09;;;;;;;1999.90;866.22;;;22.60;99.90;;;;;;5096287;28;19924;-79
2022/06/08 08:15:35;;;;;;;1999.90;999.90;;;22.60;99.90;;;;;;5079815;28;20044;-79
2022/06/08 08:18:01;;;;;;;1999.90;996.85;;;22.50;99.90;;;;;;5114626;28;20047;-79
2022/06/08 08:20:29;;;;;;;1999.90;999.90;;;22.40;99.90;;;;;;5114616;28;20176;-79
2022/06/08 08:22:55;;;;;;;;;;;22.40;99.90;;;;;;5096669;28;20054;-79
2022/06/08 08:25:22;;;;;;;1999.90;999.90;;;22.10;99.90;;;;;;5114376;28;19927;-78
2022/06/08 08:27:49;;;;;;;1999.90;999.90;;;22.10;99.90;;;;;;5114401;28;20074;-79
2022/06/08 08:30:18;;;;;;;1999.90;999.90;;;22.20;99.90;;;;;;5114210;28;20046;-79
2022/06/08 08:32:44;;;;;;;1999.90;999.90;;;22.70;99.90;;;;;;5114326;28;20054;-78
2022/06/08 08:35:11;;;;;;;1999.90;999.13;;;23.50;99.90;;;;;;5114434;28;20044;-79
2022/06/08 08:37:37;;;;;;;1999.90;875.22;;;22.90;99.90;;;;;;5096509;28;20058;-80
2022/06/08 08:40:05;;;;;;;1999.90;986.33;;;22.90;99.90;;;;;;5113935;28;20437;-79
2022/06/08 08:42:30;;;;;;;1999.90;999.90;;;23.80;99.90;;;;;;5095779;28;20468;-79
2022/06/08 08:45:15;;;;;;;1999.90;999.90;;;24.10;99.90;;;;;;5095298;28;20052;-80
2022/06/08 08:47:51;;;;;;;1999.90;999.90;;;24.10;99.90;;;;;;5113823;28;20039;-79
2022/06/08 08:50:53;;;;;;;1999.90;999.90;;;24.10;99.90;;;;;;5114181;28;20047;-79
2022/06/08 08:53:24;;;;;;;1999.90;999.90;;;24.20;99.90;;;;;;5095986;28;20126;-78
2022/06/08 08:56:07;;;;;;;1999.90;999.90;;;23.60;99.90;;;;;;5113207;28;20045;-79
2022/06/08 08:58:39;;;;;;;1795.93;999.90;;;24.20;99.90;;;;;;5114229;28;20063;-78
2022/06/08 09:01:20;;;;;;;1813.10;999.90;;;24.60;99.90;;;;;;5095399;28;20476;-79
2022/06/08 09:03:49;;;;;;;1501.20;999.90;;;25.00;99.90;;;;;;5095505;28;20083;-79
2022/06/08 09:06:22;;;;;;;1999.90;999.90;;;24.60;99.90;;;;;;5095076;28;20056;-80
2022/06/08 09:08:51;;;;;;;1999.90;999.90;;;24.20;99.90;;;;;;5113499;28;20039;-79
2022/06/08 09:11:30;;;;;;;1999.90;999.90;;;24.40;99.90;;;;;;5113286;28;20350;-79
2022/06/08 09:14:15;;;;;;;1999.90;999.90;;;23.90;99.90;;;;;;5113296;28;20035;-79
2022/06/08 09:16:45;;;;;;;1979.97;999.90;;;24.20;99.90;;;;;;5112940;28;20079;-79
2022/06/08 09:19:35;;;;;;;1999.90;999.90;;;24.50;99.90;;;;;;5113413;28;20058;-80
2022/06/08 09:22:04;;;;;;;1999.90;999.90;;;24.80;99.90;;;;;;5113087;28;20074;-79
2022/06/08 09:24:45;;;;;;;1999.90;999.90;;;23.60;99.90;;;;;;5113257;28;20142;-79
2022/06/08 09:27:17;;;;;;;1999.90;999.90;;;23.60;99.90;;;;;;5094788;28;20122;-79
2022/06/08 09:30:07;;;;;;;1999.90;999.90;;;24.30;99.90;;;;;;5094618;28;20541;-80
2022/06/08 09:32:46;;;;;;;1999.90;999.90;;;24.40;99.90;;;;;;5113054;28;20043;-80
2022/06/08 09:35:20;;;;;;;1999.90;999.90;;;24.80;99.90;;;;;;5112905;28;20048;-80
2022/06/08 09:37:48;;;;;;;1999.90;999.90;;;25.10;99.90;;;;;;5112550;28;20053;-80
2022/06/08 09:43:07;;;;;;;1999.90;999.90;;;24.10;99.90;;;;;;5112570;28;20420;-80
2022/06/08 09:45:52;;;;;;;1999.90;999.90;;;23.80;99.90;;;;;;5112675;28;20059;-79
2022/06/08 09:51:34;;;;;;;1617.90;999.90;;;24.10;99.90;;;;;;5112586;28;20111;-80
2022/06/08 09:54:50;;;;;;;1999.90;999.90;;;25.90;99.90;;;;;;5093433;28;20517;-80
2022/06/08 09:57:53;;;;;;;1999.90;977.60;;;27.10;99.90;;;;;;5009551;28;20137;-80
2022/06/08 10:00:41;;;;;;;1999.90;999.90;;;27.10;99.90;;;;;;5009204;28;20054;-78
2022/06/08 10:03:37;;;;;;;1999.90;999.90;;;25.90;99.90;;;;;;5108016;28;20062;-78
2022/06/08 10:06:08;;;;;;;1999.90;999.90;;;26.10;99.90;;;;;;5111932;28;20349;-79
2022/06/08 10:08:48;;;;;;;1999.90;999.90;;;26.00;99.90;;;;;;5112436;28;20051;-82
2022/06/08 10:14:23;;;;;;;1999.90;999.90;;;26.30;99.90;;;;;;5112136;28;20071;-80
2022/06/08 10:16:56;;;;;;;1999.90;999.90;;;26.60;1.00;;;;;;5111854;28;20097;-80
2022/06/08 10:19:45;;;;;;;1999.90;999.90;;;26.70;99.90;;;;;;5076746;28;20083;-80
2022/06/08 10:22:12;;;;;;;1999.90;999.90;;;26.30;1.00;;;;;;5093346;28;20306;-79
2022/06/08 10:24:55;;;;;;;1999.90;999.90;;;26.00;1.00;;;;;;5093991;28;20059;-81
2022/06/08 10:27:28;;;;;;;1999.90;999.90;;;26.00;99.90;;;;;;5094212;28;20107;-79
2022/06/08 10:30:22;;;;;;;1999.90;999.90;;;26.10;99.90;;;;;;5111622;28;20086;-78
2022/06/08 10:32:59;;;;;;;1999.90;999.90;;;26.20;99.90;;;;;;5094363;28;20055;-78
2022/06/08 10:35:35;;;;;;;1999.90;999.90;;;25.90;99.90;;;;;;5112360;28;20410;-80
2022/06/08 10:38:02;;;;;;;1999.90;999.90;;;25.60;99.90;;;;;;5112047;28;20150;-79
2022/06/08 10:40:53;;;;;;;1999.90;999.90;;;25.40;99.90;;;;;;5111514;28;20036;-79
2022/06/08 10:43:24;;;;;;;1999.90;999.90;;;25.10;99.90;;;;;;5094256;28;20051;-79
2022/06/08 10:46:05;;;;;;;1999.90;999.90;;;24.90;99.90;;;;;;5112200;28;20373;-78
2022/06/08 10:48:44;;;;;;;1999.90;999.90;;;24.80;99.90;;;;;;5112048;28;20039;-79
2022/06/08 10:51:10;;;;;;;1999.90;999.90;;;24.70;1.00;;;;;;5111521;28;20236;-79
2022/06/08 10:56:36;;;;;;;1999.90;999.90;;;24.50;1.00;;;;;;5110889;28;20122;-78
2022/06/08 10:59:07;;;;;;;1999.90;999.90;;;24.50;99.90;;;;;;5093475;28;20044;-79
2022/06/08 11:01:47;;;;;;;1999.90;999.90;;;24.50;99.90;;;;;;5111361;28;20079;-79
2022/06/08 11:04:31;;;;;;;1999.90;999.90;;;24.50;1.00;;;;;;5111555;28;20118;-79
2022/06/08 11:07:10;;;;;;;1999.90;999.90;;;24.50;99.90;;;;;;5114962;28;20062;-78
2022/06/08 11:09:36;;;;;;;1999.90;999.90;;;24.50;99.90;;;;;;5096767;28;20104;-81
2022/06/08 11:12:27;;;;;;;1999.90;999.90;;;24.60;1.00;;;;;;5115028;28;20476;-80
2022/06/08 11:14:58;;;;;;;1999.90;999.90;;;24.40;99.90;;;;;;5099713;28;20094;-79
2022/06/08 11:17:49;;;;;;;1999.90;999.90;;;24.50;99.90;;;;;;5097462;28;20043;-78
2022/06/08 11:20:35;;;;;;;1999.90;999.90;;;24.30;99.90;;;;;;5114148;28;20081;-79
2022/06/08 11:23:10;;;;;;;1999.90;999.90;;;24.40;99.90;;;;;;5096257;28;20384;-79
2022/06/08 11:25:49;;;;;;;1999.90;999.90;;;24.40;99.90;;;;;;5114894;28;20123;-79
2022/06/08 11:28:27;;;;;;;1999.90;999.90;;;24.30;1.00;;;;;;5114905;28;20047;-79
2022/06/08 11:30:56;;;;;;;1936.88;999.90;;;23.90;99.90;;;;;;5115266;28;20116;-79
2022/06/08 11:33:22;;;;;;;1999.90;999.90;;;23.80;1.00;;;;;;5115287;28;20091;-79
2022/06/08 11:36:16;;;;;;;1956.57;999.90;;;23.60;1.00;;;;;;5115314;28;20051;-79
2022/06/08 11:38:47;;;;;;;1999.90;999.90;;;23.40;1.00;;;;;;5063720;28;20047;-79
2022/06/08 11:41:28;;;;;;;1999.90;934.38;;;23.20;1.00;;;;;;5114499;28;20504;-79
2022/06/08 11:43:55;;;;;;;1999.90;730.15;;;23.00;23.50;;;;;;5115159;28;20111;-81
2022/06/08 11:46:33;;;;;;;1999.90;978.58;;;22.40;99.90;;;;;;5114581;28;20449;-79
2022/06/08 11:48:58;;;;;;;1999.90;999.90;;;22.00;83.60;;;;;;5114970;28;20087;-79
2022/06/08 11:51:36;;;;;;;1999.90;999.90;;;21.90;97.00;;;;;;5115018;28;20070;-79
2022/06/08 11:54:22;;;;;;;1999.90;999.90;;;21.80;86.80;;;;;;5114806;28;20087;-79
2022/06/08 11:56:56;;;;;;;1999.90;999.90;;;21.80;51.10;;;;;;5114531;28;20051;-78
2022/06/08 11:59:23;;;;;;;1999.90;999.90;;;22.00;29.20;;;;;;5114632;28;20043;-79
2022/06/08 12:02:01;;;;;;;1999.90;992.97;;;22.10;28.80;;;;;;5114806;28;20388;-79
2022/06/08 12:04:30;;;;;;;1999.90;610.33;;;22.10;23.90;;;;;;5114838;28;20043;-79
2022/06/08 12:06:57;;;;;;;1999.90;665.95;;;21.70;99.90;;;;;;5114389;28;20476;-79
2022/06/08 12:09:28;;;;;;;1999.90;997.57;;;21.50;99.90;;;;;;5114513;28;20116;-78
2022/06/08 12:12:03;;;;;;;1999.90;544.10;;;21.20;99.90;;;;;;5114365;28;20105;-79
2022/06/08 12:14:36;;;;;;;1999.90;765.78;;;20.30;99.90;;;;;;5096144;28;20381;-79
2022/06/08 12:17:23;;;;;;;1999.90;689.55;;;19.70;99.90;;;;;;5113429;28;20421;-82
2022/06/08 12:19:58;;;;;;;1999.90;999.90;;;19.10;99.90;;;;;;5078931;28;20077;-81
2022/06/08 12:22:35;;;;;;;1999.90;999.90;;;19.10;99.90;;;;;;5114294;28;20122;-80
2022/06/08 12:25:10;;;;;;;1999.90;999.90;;;18.10;99.90;;;;;;5113861;28;20132;-77
2022/06/08 12:27:52;;;;;;;1805.47;808.17;;;19.80;99.90;;;;;;5114350;28;20127;-79
2022/06/08 12:30:29;;;;;;;1835.93;691.53;;;19.50;99.90;;;;;;5114071;28;20044;-74
2022/06/08 12:32:55;;;;;;;1844.78;808.55;;;17.90;99.90;;;;;;5114176;28;20104;-77
2022/06/08 12:35:41;;;;;;;1712.43;317.05;;;18.40;99.90;;;;;;5114178;28;20055;-73
2022/06/08 12:38:22;;;;;;;1904.90;449.63;;;18.40;99.90;;;;;;5113576;28;20492;-74
2022/06/08 12:41:08;;;;;;;1536.95;349.05;;;19.90;99.90;;;;;;5113809;28;20138;-74